createdAt,value
2022-10-17T00:02:01.440Z,11.80
2022-10-17T00:04:30.414Z,11.80
2022-10-17T00:07:02.018Z,11.70
2022-10-17T00:09:38.331Z,11.70
2022-10-17T00:12:10.040Z,11.80
2022-10-17T00:14:41.071Z,11.70
2022-10-17T00:17:10.193Z,11.80
2022-10-17T00:19:42.383Z,11.90
2022-10-17T00:22:13.501Z,11.90
2022-10-17T00:24:46.201Z,12.00
2022-10-17T00:27:17.550Z,12.00
2022-10-17T00:29:53.520Z,12.10
2022-10-17T00:32:25.440Z,12.10
2022-10-17T00:34:56.304Z,12.10
2022-10-17T00:37:25.658Z,12.00
2022-10-17T00:40:03.250Z,12.00
2022-10-17T00:42:35.095Z,12.00
2022-10-17T00:45:14.633Z,12.10
2022-10-17T00:47:47.174Z,12.10
2022-10-17T00:50:18.370Z,12.10
2022-10-17T00:52:49.199Z,12.10
2022-10-17T00:55:31.250Z,12.10
2022-10-17T00:58:06.391Z,12.20
2022-10-17T01:00:38.961Z,12.20
2022-10-17T01:03:08.299Z,12.20
2022-10-17T01:05:42.600Z,12.30
2022-10-17T01:08:12.331Z,12.30
2022-10-17T01:10:56.650Z,12.30
2022-10-17T01:13:32.828Z,12.30
2022-10-17T01:16:13.740Z,12.40
2022-10-17T01:18:55.700Z,12.40
2022-10-17T01:21:34.991Z,12.40
2022-10-17T01:24:43.710Z,12.40
2022-10-17T01:27:49.311Z,12.40
2022-10-17T01:30:49.203Z,12.50
2022-10-17T01:33:29.248Z,12.50
2022-10-17T01:36:05.734Z,12.40
2022-10-17T01:38:39.502Z,12.40
2022-10-17T01:41:15.950Z,12.40
2022-10-17T01:43:57.161Z,12.40
2022-10-17T01:46:33.759Z,12.40
2022-10-17T01:49:06.346Z,12.40
2022-10-17T01:51:41.941Z,12.40
2022-10-17T01:54:16.260Z,12.40
2022-10-17T01:56:48.742Z,12.40
2022-10-17T01:59:22.666Z,12.50
2022-10-17T02:01:56.001Z,12.50
2022-10-17T02:04:27.487Z,12.50
2022-10-17T02:06:58.322Z,12.50
2022-10-17T02:09:29.291Z,12.50
2022-10-17T02:12:17.520Z,12.50
2022-10-17T02:14:59.071Z,12.50
2022-10-17T02:17:39.171Z,12.50
2022-10-17T02:20:19.465Z,12.50
2022-10-17T02:22:56.970Z,12.50
2022-10-17T02:25:36.880Z,12.50
2022-10-17T02:28:21.000Z,12.50
2022-10-17T02:30:56.052Z,12.60
2022-10-17T02:33:33.641Z,12.60
2022-10-17T02:36:07.591Z,12.60
2022-10-17T02:38:37.080Z,12.60
2022-10-17T02:41:09.216Z,12.70
2022-10-17T02:43:45.960Z,12.70
2022-10-17T02:46:21.867Z,12.70
2022-10-17T02:49:03.190Z,12.70
2022-10-17T02:51:43.370Z,12.70
2022-10-17T02:54:18.581Z,12.70
2022-10-17T02:56:55.532Z,12.60
2022-10-17T02:59:32.521Z,12.60
2022-10-17T03:02:07.561Z,12.50
2022-10-17T03:04:38.641Z,12.60
2022-10-17T03:07:08.798Z,12.60
2022-10-17T03:09:38.550Z,12.60
2022-10-17T03:12:08.834Z,12.60
2022-10-17T03:14:38.222Z,12.60
2022-10-17T03:17:08.760Z,12.60
2022-10-17T03:19:43.852Z,12.60
2022-10-17T03:22:13.481Z,12.60
2022-10-17T03:24:44.510Z,12.60
2022-10-17T03:27:16.545Z,12.50
2022-10-17T03:29:46.651Z,12.50
2022-10-17T03:32:17.442Z,12.50
2022-10-17T03:34:50.171Z,12.40
2022-10-17T03:37:20.351Z,12.40
2022-10-17T03:39:49.252Z,12.40
2022-10-17T03:42:21.795Z,12.30
2022-10-17T03:44:53.370Z,12.30
2022-10-17T03:47:25.691Z,12.20
2022-10-17T03:49:59.880Z,12.30
2022-10-17T03:52:28.921Z,12.30
2022-10-17T03:54:58.524Z,12.30
2022-10-17T03:57:29.673Z,12.30
2022-10-17T03:59:59.203Z,12.40
2022-10-17T04:02:31.510Z,12.40
2022-10-17T04:05:04.351Z,12.50
2022-10-17T04:07:37.454Z,12.50
2022-10-17T04:10:07.400Z,12.50
2022-10-17T04:12:37.080Z,12.60
2022-10-17T04:15:08.900Z,12.60
2022-10-17T04:17:38.456Z,12.60
2022-10-17T04:20:10.831Z,12.60
2022-10-17T04:22:46.962Z,12.60
2022-10-17T04:25:16.866Z,12.60
2022-10-17T04:27:48.601Z,12.60
2022-10-17T04:30:21.025Z,12.60
2022-10-17T04:32:52.532Z,12.60
2022-10-17T04:35:29.120Z,12.60
2022-10-17T04:38:00.111Z,12.50
2022-10-17T04:40:30.231Z,12.50
2022-10-17T04:42:59.870Z,12.50
2022-10-17T04:45:29.931Z,12.40
2022-10-17T04:47:59.382Z,12.30
2022-10-17T04:50:34.350Z,12.30
2022-10-17T04:53:05.619Z,12.20
2022-10-17T04:55:39.951Z,12.20
2022-10-17T04:58:09.210Z,12.10
2022-10-17T05:00:39.173Z,12.10
2022-10-17T05:03:08.401Z,12.10
2022-10-17T05:05:41.026Z,12.00
2022-10-17T05:08:13.951Z,12.00
2022-10-17T05:10:44.544Z,12.00
2022-10-17T05:13:13.711Z,12.00
2022-10-17T05:15:45.450Z,12.10
2022-10-17T05:18:14.395Z,12.00
2022-10-17T05:20:48.669Z,12.00
2022-10-17T05:23:19.541Z,12.00
2022-10-17T05:25:48.480Z,12.00
2022-10-17T05:28:35.387Z,12.00
2022-10-17T05:31:05.212Z,11.90
2022-10-17T05:33:35.871Z,11.90
2022-10-17T05:36:09.623Z,11.90
2022-10-17T05:38:39.800Z,11.90
2022-10-17T05:41:09.372Z,11.80
2022-10-17T05:43:38.191Z,11.80
2022-10-17T05:46:11.361Z,11.80
2022-10-17T05:48:42.629Z,11.80
2022-10-17T05:51:14.069Z,11.80
2022-10-17T05:53:43.860Z,11.80
2022-10-17T05:56:14.902Z,11.80
2022-10-17T05:58:50.364Z,11.80
2022-10-17T06:01:21.530Z,11.80
2022-10-17T06:03:50.510Z,11.80
2022-10-17T06:06:23.221Z,11.80
2022-10-17T06:08:52.502Z,11.80
2022-10-17T06:11:26.982Z,11.90
2022-10-17T06:13:57.811Z,11.90
2022-10-17T06:16:27.922Z,11.90
2022-10-17T06:18:59.843Z,12.00
2022-10-17T06:21:35.080Z,11.90
2022-10-17T06:24:04.449Z,11.90
2022-10-17T06:29:17.471Z,12.00
2022-10-17T06:31:47.230Z,12.10
2022-10-17T06:34:16.352Z,12.10
2022-10-17T06:36:47.554Z,12.10
2022-10-17T06:39:20.050Z,12.20
2022-10-17T06:41:51.439Z,12.20
2022-10-17T06:44:22.430Z,12.30
2022-10-17T06:46:51.406Z,12.30
2022-10-17T06:49:21.086Z,12.40
2022-10-17T06:51:51.958Z,12.50
2022-10-17T06:54:21.867Z,12.50
2022-10-17T06:56:51.351Z,12.60
2022-10-17T06:59:19.911Z,12.70
2022-10-17T07:01:49.787Z,12.70
2022-10-17T07:04:19.189Z,12.80
2022-10-17T07:06:53.520Z,13.00
2022-10-17T07:09:23.584Z,13.00
2022-10-17T07:11:54.526Z,13.10
2022-10-17T07:14:23.232Z,13.10
2022-10-17T07:16:54.400Z,13.20
2022-10-17T07:19:25.868Z,13.30
2022-10-17T07:21:55.940Z,13.40
2022-10-17T07:24:25.721Z,13.50
2022-10-17T07:26:58.513Z,13.70
2022-10-17T07:29:30.650Z,13.90
2022-10-17T07:32:00.468Z,14.00
2022-10-17T07:34:31.535Z,14.10
2022-10-17T07:37:02.850Z,14.30
2022-10-17T07:39:32.141Z,14.50
2022-10-17T07:42:01.760Z,14.60
2022-10-17T07:44:32.244Z,14.80
2022-10-17T07:47:04.500Z,14.90
2022-10-17T07:49:33.702Z,15.10
2022-10-17T07:52:05.373Z,15.20
2022-10-17T07:54:34.301Z,15.50
2022-10-17T07:57:05.508Z,15.70
2022-10-17T07:59:36.198Z,15.80
2022-10-17T08:02:05.667Z,15.80
2022-10-17T08:04:36.524Z,15.70
2022-10-17T08:07:19.608Z,15.80
2022-10-17T08:09:52.431Z,15.80
2022-10-17T08:12:22.320Z,15.80
2022-10-17T08:14:51.350Z,15.70
2022-10-17T08:17:20.373Z,15.60
2022-10-17T08:22:35.423Z,15.60
2022-10-17T08:25:10.505Z,15.60
2022-10-17T08:27:41.741Z,15.60
2022-10-17T08:30:12.801Z,15.70
2022-10-17T08:32:45.215Z,15.70
2022-10-17T08:35:16.139Z,15.80
2022-10-17T08:37:47.022Z,15.90
2022-10-17T08:40:22.591Z,16.00
2022-10-17T08:43:35.373Z,16.10
2022-10-17T08:46:09.570Z,16.30
2022-10-17T08:48:46.588Z,16.70
2022-10-17T08:51:23.942Z,17.10
2022-10-17T08:54:03.320Z,17.50
2022-10-17T08:56:54.299Z,17.60
2022-10-17T08:59:31.099Z,17.80
2022-10-17T09:02:08.280Z,17.90
2022-10-17T09:05:26.697Z,18.10
2022-10-17T09:08:08.673Z,18.30
2022-10-17T09:10:53.372Z,18.30
2022-10-17T09:13:42.652Z,18.40
2022-10-17T09:16:47.759Z,18.60
2022-10-17T09:19:22.269Z,18.60
2022-10-17T09:21:56.409Z,18.60
2022-10-17T09:24:36.724Z,18.70
2022-10-17T09:27:14.033Z,18.80
2022-10-17T09:29:49.111Z,18.90
2022-10-17T09:32:22.790Z,19.10
2022-10-17T09:34:57.720Z,19.20
2022-10-17T09:37:33.102Z,19.40
2022-10-17T09:40:05.051Z,19.50
2022-10-17T09:42:40.182Z,19.80
2022-10-17T09:45:26.051Z,20.10
2022-10-17T09:48:06.072Z,20.40
2022-10-17T09:50:36.551Z,20.50
2022-10-17T09:53:17.324Z,20.60
2022-10-17T09:55:52.449Z,20.60
2022-10-17T09:58:23.480Z,20.70
2022-10-17T10:00:53.287Z,20.80
2022-10-17T10:03:24.752Z,20.90
2022-10-17T10:06:06.910Z,21.10
2022-10-17T10:08:38.504Z,21.10
2022-10-17T10:11:13.884Z,21.40
2022-10-17T10:13:45.412Z,21.90
2022-10-17T10:16:24.424Z,22.50
2022-10-17T10:18:54.982Z,23.00
2022-10-17T10:21:26.880Z,23.10
2022-10-17T10:24:17.322Z,22.90
2022-10-17T10:26:49.210Z,22.80
2022-10-17T10:29:32.551Z,22.60
2022-10-17T10:32:15.921Z,22.30
2022-10-17T10:34:52.903Z,22.00
2022-10-17T10:37:24.829Z,22.00
2022-10-17T10:39:56.365Z,21.70
2022-10-17T10:42:34.806Z,21.50
2022-10-17T10:45:42.786Z,21.40
2022-10-17T10:48:24.359Z,21.00
2022-10-17T10:50:57.741Z,20.80
2022-10-17T10:53:36.190Z,20.60
2022-10-17T10:56:11.492Z,20.40
2022-10-17T10:58:58.421Z,20.30
2022-10-17T11:01:34.481Z,20.20
2022-10-17T11:04:21.671Z,20.20
2022-10-17T11:06:54.477Z,20.10
2022-10-17T11:09:52.262Z,20.00
2022-10-17T11:12:25.740Z,19.90
2022-10-17T11:15:01.099Z,19.80
2022-10-17T11:17:40.679Z,19.80
2022-10-17T11:20:23.660Z,19.80
2022-10-17T11:22:59.286Z,19.80
2022-10-17T11:25:42.029Z,19.80
2022-10-17T11:28:17.131Z,19.70
2022-10-17T11:30:52.651Z,19.60
2022-10-17T11:33:34.302Z,19.60
2022-10-17T11:36:08.070Z,19.70
2022-10-17T11:38:46.954Z,19.80
2022-10-17T11:41:22.580Z,20.00
2022-10-17T11:43:56.379Z,20.10
2022-10-17T11:46:29.061Z,20.30
2022-10-17T11:49:08.374Z,20.60
2022-10-17T11:52:03.619Z,20.80
2022-10-17T11:54:36.734Z,20.70
2022-10-17T11:57:19.166Z,20.50
2022-10-17T12:00:19.001Z,20.40
2022-10-17T12:03:00.171Z,20.40
2022-10-17T12:05:41.207Z,20.30
2022-10-17T12:08:41.891Z,20.20
2022-10-17T12:11:30.572Z,20.00
2022-10-17T12:14:04.981Z,20.00
2022-10-17T12:16:49.485Z,19.90
2022-10-17T12:19:29.153Z,19.80
2022-10-17T12:22:09.949Z,19.70
2022-10-17T12:24:43.012Z,19.70
2022-10-17T12:27:42.497Z,19.50
2022-10-17T12:30:27.043Z,19.30
2022-10-17T12:33:25.091Z,19.20
2022-10-17T12:36:35.029Z,19.10
2022-10-17T12:39:56.762Z,19.20
2022-10-17T12:43:02.701Z,19.20
2022-10-17T12:45:54.961Z,19.20
2022-10-17T12:49:00.746Z,19.10
2022-10-17T12:51:36.191Z,19.10
2022-10-17T12:54:15.273Z,19.00
2022-10-17T12:56:48.050Z,18.90
2022-10-17T12:59:26.266Z,18.80
2022-10-17T13:02:00.170Z,18.80
2022-10-17T13:04:31.002Z,18.70
2022-10-17T13:07:02.012Z,18.60
2022-10-17T13:09:33.960Z,18.60
2022-10-17T13:12:07.859Z,18.60
2022-10-17T13:14:45.170Z,18.60
2022-10-17T13:17:30.130Z,18.60
2022-10-17T13:19:59.945Z,18.60
2022-10-17T13:22:33.800Z,18.60
2022-10-17T13:25:14.342Z,18.50
2022-10-17T13:27:47.855Z,18.50
2022-10-17T13:30:32.253Z,18.60
2022-10-17T13:33:02.602Z,18.70
2022-10-17T13:35:58.830Z,18.70
2022-10-17T13:38:31.579Z,18.70
2022-10-17T13:41:23.249Z,18.70
2022-10-17T13:43:55.281Z,18.60
2022-10-17T13:46:39.594Z,18.60
2022-10-17T13:49:23.230Z,18.50
2022-10-17T13:51:56.643Z,18.50
2022-10-17T13:54:38.527Z,18.50
2022-10-17T13:57:21.091Z,18.40
2022-10-17T13:59:55.900Z,18.40
2022-10-17T14:02:32.253Z,18.30
2022-10-17T14:05:22.952Z,18.20
2022-10-17T14:08:11.374Z,18.20
2022-10-17T14:10:44.331Z,18.20
2022-10-17T14:13:27.411Z,18.10
2022-10-17T14:15:58.345Z,18.10
2022-10-17T14:18:36.767Z,18.10
2022-10-17T14:24:18.416Z,18.10
2022-10-17T14:26:56.090Z,18.00
2022-10-17T14:29:28.522Z,18.00
2022-10-17T14:32:04.468Z,18.00
2022-10-17T14:34:48.091Z,18.00
2022-10-17T14:37:32.790Z,17.90
2022-10-17T14:40:07.053Z,17.90
2022-10-17T14:42:41.373Z,17.90
2022-10-17T14:45:19.107Z,17.80
2022-10-17T14:48:01.565Z,17.80
2022-10-17T14:50:38.755Z,17.80
2022-10-17T14:53:24.229Z,17.80
2022-10-17T14:55:58.938Z,17.80
2022-10-17T14:58:30.829Z,17.80
2022-10-17T15:01:02.870Z,17.80
2022-10-17T15:03:31.857Z,17.80
2022-10-17T15:06:17.652Z,17.80
2022-10-17T15:08:47.663Z,17.80
2022-10-17T15:11:17.855Z,17.80
2022-10-17T15:13:51.730Z,17.80
2022-10-17T15:16:27.078Z,17.80
2022-10-17T15:18:58.487Z,17.80
2022-10-17T15:21:40.585Z,17.80
2022-10-17T15:24:16.721Z,17.80
2022-10-17T15:26:46.637Z,17.80
2022-10-17T15:29:17.568Z,17.80
2022-10-17T15:31:48.334Z,17.80
2022-10-17T15:34:18.255Z,17.70
2022-10-17T15:36:57.471Z,17.70
2022-10-17T15:39:31.688Z,17.70
2022-10-17T15:42:02.633Z,17.70
2022-10-17T15:44:33.648Z,17.70
2022-10-17T15:47:04.112Z,17.60
2022-10-17T15:49:35.139Z,17.60
2022-10-17T15:52:08.706Z,17.60
2022-10-17T15:54:38.467Z,17.60
2022-10-17T15:57:07.653Z,17.60
2022-10-17T15:59:37.442Z,17.70
2022-10-17T16:02:11.101Z,17.70
2022-10-17T16:04:41.761Z,17.70
2022-10-17T16:07:12.972Z,17.70
2022-10-17T16:09:44.617Z,17.60
2022-10-17T16:12:19.824Z,17.60
2022-10-17T16:14:50.518Z,17.60
2022-10-17T16:17:20.720Z,17.60
2022-10-17T16:19:50.411Z,17.50
2022-10-17T16:22:30.106Z,17.50
2022-10-17T16:25:07.975Z,17.50
2022-10-17T16:27:39.520Z,17.50
2022-10-17T16:30:11.593Z,17.50
2022-10-17T16:32:41.132Z,17.50
2022-10-17T16:35:17.882Z,17.50
2022-10-17T16:37:50.540Z,17.50
2022-10-17T16:40:21.495Z,17.40
2022-10-17T16:42:53.845Z,17.30
2022-10-17T16:45:28.085Z,17.30
2022-10-17T16:47:58.539Z,17.20
2022-10-17T16:50:35.781Z,17.20
2022-10-17T16:53:06.380Z,17.10
2022-10-17T16:58:20.658Z,17.10
2022-10-17T17:00:51.694Z,17.00
2022-10-17T17:03:23.713Z,17.00
2022-10-17T17:05:54.119Z,17.00
2022-10-17T17:08:30.620Z,17.00
2022-10-17T17:11:00.837Z,16.90
2022-10-17T17:13:33.621Z,16.90
2022-10-17T17:16:10.072Z,16.90
2022-10-17T17:18:40.210Z,16.90
2022-10-17T17:21:12.312Z,16.80
2022-10-17T17:23:44.621Z,16.80
2022-10-17T17:26:17.671Z,16.80
2022-10-17T17:31:32.521Z,16.70
2022-10-17T17:34:02.642Z,16.70
2022-10-17T17:36:33.907Z,16.70
2022-10-17T17:39:09.659Z,16.70
2022-10-17T17:41:41.843Z,16.70
2022-10-17T17:44:16.689Z,16.60
2022-10-17T17:46:47.228Z,16.60
2022-10-17T17:54:38.533Z,16.70
2022-10-17T17:57:11.740Z,16.60
2022-10-17T17:59:44.391Z,16.60
2022-10-17T18:02:13.630Z,16.50
2022-10-17T18:04:46.265Z,16.40
2022-10-17T18:07:15.712Z,16.40
2022-10-17T18:09:47.210Z,16.40
2022-10-17T18:12:17.317Z,16.40
2022-10-17T18:14:49.238Z,16.30
2022-10-17T18:17:21.580Z,16.30
2022-10-17T18:19:51.939Z,16.20
2022-10-17T18:22:21.342Z,16.20
2022-10-17T18:24:58.727Z,16.20
2022-10-17T18:27:30.949Z,16.20
2022-10-17T18:30:03.352Z,16.10
2022-10-17T18:32:34.563Z,16.00
2022-10-17T18:35:04.441Z,16.00
2022-10-17T18:37:34.058Z,16.00
2022-10-17T18:40:09.404Z,16.00
2022-10-17T18:42:38.522Z,16.00
2022-10-17T18:45:11.500Z,16.00
2022-10-17T18:47:40.912Z,16.00
2022-10-17T18:50:22.771Z,15.90
2022-10-17T18:52:54.693Z,15.90
2022-10-17T18:55:32.453Z,15.90
2022-10-17T18:58:03.915Z,15.80
2022-10-17T19:00:34.133Z,15.80
2022-10-17T19:03:06.343Z,15.80
2022-10-17T19:05:42.104Z,15.80
2022-10-17T19:08:12.542Z,15.70
2022-10-17T19:10:47.613Z,15.70
2022-10-17T19:13:20.801Z,15.70
2022-10-17T19:15:54.461Z,15.70
2022-10-17T19:18:23.931Z,15.70
2022-10-17T19:20:53.813Z,15.80
2022-10-17T19:23:23.566Z,15.80
2022-10-17T19:26:00.397Z,15.80
2022-10-17T19:28:29.881Z,15.80
2022-10-17T19:30:59.781Z,15.80
2022-10-17T19:33:30.328Z,15.80
2022-10-17T19:36:03.141Z,15.70
2022-10-17T19:38:33.170Z,15.70
2022-10-17T19:41:10.038Z,15.70
2022-10-17T19:43:43.024Z,15.70
2022-10-17T19:46:15.415Z,15.70
2022-10-17T19:48:45.072Z,15.60
2022-10-17T19:51:17.276Z,15.70
2022-10-17T19:53:47.656Z,15.60
2022-10-17T19:56:18.849Z,15.60
2022-10-17T19:58:57.140Z,15.70
2022-10-17T20:01:30.140Z,15.60
2022-10-17T20:04:01.352Z,15.70
2022-10-17T20:06:32.288Z,15.70
2022-10-17T20:09:01.635Z,15.70
2022-10-17T20:11:34.280Z,15.70
2022-10-17T20:14:05.947Z,15.70
2022-10-17T20:16:37.886Z,15.70
2022-10-17T20:19:12.442Z,15.80
2022-10-17T20:21:44.263Z,15.80
2022-10-17T20:24:16.287Z,15.80
2022-10-17T20:26:53.453Z,15.90
2022-10-17T20:29:24.171Z,15.90
2022-10-17T20:31:54.303Z,15.90
2022-10-17T20:34:23.600Z,15.90
2022-10-17T20:36:53.688Z,15.90
2022-10-17T20:39:22.808Z,15.90
2022-10-17T20:41:54.322Z,16.00
2022-10-17T20:44:24.011Z,16.00
2022-10-17T20:47:01.637Z,16.00
2022-10-17T20:49:34.360Z,16.00
2022-10-17T20:52:03.801Z,16.00
2022-10-17T20:54:35.611Z,16.00
2022-10-17T20:57:06.955Z,16.00
2022-10-17T20:59:37.769Z,16.10
2022-10-17T21:02:07.422Z,16.10
2022-10-17T21:04:47.306Z,16.00
2022-10-17T21:07:19.020Z,16.00
2022-10-17T21:09:50.906Z,16.00
2022-10-17T21:12:31.310Z,16.00
2022-10-17T21:15:08.820Z,15.90
2022-10-17T21:17:37.502Z,15.90
2022-10-17T21:20:08.661Z,15.80
2022-10-17T21:22:39.892Z,15.80
2022-10-17T21:25:11.040Z,15.80
2022-10-17T21:27:41.692Z,15.80
2022-10-17T21:30:12.453Z,15.80
2022-10-17T21:32:52.120Z,15.90
2022-10-17T21:35:24.340Z,15.90
2022-10-17T21:37:53.800Z,16.00
2022-10-17T21:40:23.624Z,15.90
2022-10-17T21:42:56.440Z,15.90
2022-10-17T21:45:26.860Z,16.00
2022-10-17T21:48:12.366Z,16.00
2022-10-17T21:50:42.855Z,16.00
2022-10-17T21:53:12.791Z,16.00
2022-10-17T21:55:44.204Z,15.90
2022-10-17T21:58:16.552Z,15.90
2022-10-17T22:00:46.473Z,15.90
2022-10-17T22:03:17.107Z,15.90
2022-10-17T22:05:47.299Z,15.90
2022-10-17T22:08:16.594Z,15.90
2022-10-17T22:10:47.423Z,15.90
2022-10-17T22:13:22.674Z,15.90
2022-10-17T22:15:54.024Z,15.90
2022-10-17T22:18:23.453Z,15.90
2022-10-17T22:20:53.464Z,15.90
2022-10-17T22:23:26.685Z,15.90
2022-10-17T22:25:57.024Z,15.80
2022-10-17T22:28:28.514Z,15.80
2022-10-17T22:31:00.694Z,15.80
2022-10-17T22:33:31.504Z,15.80
2022-10-17T22:36:02.412Z,15.80
2022-10-17T22:38:34.374Z,15.80
2022-10-17T22:41:04.933Z,15.80
2022-10-17T22:43:35.226Z,15.80
2022-10-17T22:46:20.862Z,15.90
2022-10-17T22:48:51.239Z,15.80
2022-10-17T22:51:20.021Z,15.80
2022-10-17T22:53:48.684Z,15.80
2022-10-17T22:56:23.742Z,15.80
2022-10-17T22:58:55.533Z,15.80
2022-10-17T23:01:27.141Z,15.80
2022-10-17T23:03:58.194Z,15.70
2022-10-17T23:06:29.694Z,15.70
2022-10-17T23:09:00.798Z,15.60
2022-10-17T23:11:31.040Z,15.60
2022-10-17T23:14:01.134Z,15.50
2022-10-17T23:16:30.734Z,15.50
2022-10-17T23:18:59.695Z,15.50
2022-10-17T23:21:30.184Z,15.50
2022-10-17T23:24:02.257Z,15.50
2022-10-17T23:26:31.921Z,15.50
2022-10-17T23:29:03.132Z,15.50
2022-10-17T23:31:33.943Z,15.50
2022-10-17T23:34:05.014Z,15.50
2022-10-17T23:36:33.786Z,15.50
2022-10-17T23:39:04.127Z,15.50
2022-10-17T23:41:33.795Z,15.40
2022-10-17T23:44:05.282Z,15.50
2022-10-17T23:46:35.064Z,15.50
2022-10-17T23:49:07.126Z,15.50
2022-10-17T23:51:38.764Z,15.60
2022-10-17T23:54:11.093Z,15.50
2022-10-17T23:56:41.990Z,15.50
2022-10-17T23:59:17.513Z,15.50
